Aktualne dane pomiarowe

Uwaga, wersja testowa! Automatyczne pobieranie danych za pomocą narzędzi lub skryptów to umożliwiających jest zabronione.

Dane meteo z obszaru Polski uzyskane na podstawie depesz SYNOP pobieranych co godzinę z NWS. Najedź myszką na symbol przedstawiony w tabeli, aby uzyskać informacje co do jego znaczenia. Prosimy pamiętać, że to testowa wersja strony, która jeszcze nie jest ukończona. Stworzono również jest krótki FAQ dotyczący korzystania z tej podstrony Anomalie temperatury w chwili obecnej odniesione są do okresu referencyjnego 1951-2016. Okres ten będzie później zmieniony na 1981-2010. Kliknij ikonę aby pobrać plik CSV. Kliknij ikonę aby wygenerować mapę synoptyczną dla danego terminu.

Wybierz Datę:    

        

Sulejów (12469)

Dane terminowe dla wybranej stacji. Kliknij datę, aby otrzymać dane z tego terminu dla wszystkich stacji.

TemperaturaZachmurzenieWiatrCiśnienieOpadyPogoda
 Data t td wb tx tn tg rh  Nt Nl Cl Cm Ch ws wd g1 g2 wx mslp ppp ch 24h 12h t ww ww w1 w2  
2019-07-12 23:00:00 15.9 11.8 13.2--- 7735.0wx-wx2wx--21009.8 987.5 -0.1---------
2019-07-12 22:00:00 16.6 11.0 13.1--- 7045.0wx-wx3wx---1010.0 987.7 0.2---------
2019-07-12 21:00:00 17.0 10.7 13.1--- 6650.0wxwxwxwx3wx--31009.9 987.7 0.8---------
2019-07-12 20:00:00 17.8 10.8 13.5--- 6450.0wxwxwxwx4wx--41009.8 987.6 1.2---------
2019-07-12 19:00:00 18.3 11.3 13.9--- 6445.0wxwxwxwx4wx--41009.6 987.5 1.1---------
2019-07-12 18:00:00 20.4 9.5 14.0 25.5 17.8- 5045.0wxwxwxwxwx4wx-1141008.9 986.9 0.2- 0.012------
2019-07-12 17:00:00 24.6 5.3 14.1--- 2945.0wxwxwxwxwx2wx--21008.0 986.4 -0.7---------
2019-07-12 16:00:00 24.8 6.4 14.6--- 3145.0wxwxwxwxwx1wx--11008.0 986.4 -1.0---------
2019-07-12 15:00:00 24.5 6.2 14.4--- 3145.0wxwxwxwxwx2wx-921008.4 986.7 -0.8---------
2019-07-12 14:00:00 25.5 6.6 15.0--- 3040.0wxwxwxwxwx1wx--11008.7 987.1 -0.8---------
2019-07-12 13:00:00 24.6 5.8 14.3--- 3040.0wxwxwxwxwx2wx--21009.1 987.4 -0.8---------
2019-07-12 12:00:00 23.8 6.5 14.2--- 3340.0wxwxwxwxwx2wx-721009.2 987.5 -1.0- 0.06------
2019-07-12 11:00:00 23.9 7.0 14.4--- 3440.0wxwxwxwxwx2wx--21009.6 987.9 -0.7---------
2019-07-12 10:00:00 23.3 7.3 14.3--- 3640.0wxwxwxwxwx2wx--21010.0 988.2 -0.8---------
2019-07-12 09:00:00 22.5 6.2 13.5--- 3540.0wxwxwxwxwx3wx---1010.3 988.5 -0.6---------
2019-07-12 08:00:00 22.2 7.5 13.9--- 3935.0wxwxwxwxwx2wx--21010.5 988.6 -0.6---------
2019-07-12 07:00:00 20.5 9.0 13.8--- 4830.0wx-wxwx2wx--21011.0 989.0 -0.3---------
2019-07-12 06:00:00 17.8 8.5 12.4 18.2 8.9 7 5530.0wxwxwxwx2wx--21011.3 989.1 -0.3- 0.012----- 5.4
2019-07-12 05:00:00 13.4 9.5 10.9--- 7730.0wxwxwxwx1wx---1011.8 989.2 -0.2---------
2019-07-12 04:00:00 10.6 8.6 9.3--- 8720.0wxwxwxwx1wx--11012.1 989.3 -0.2---------
2019-07-12 03:00:00 9.4 8.1 8.5--- 9225.0wxwxwxwx2wx--21012.3 989.4 -0.3---------
2019-07-12 02:00:00 9.1 7.8 8.2--- 9225.0wxwxwxwxwx2wx--21012.3 989.4 -0.5---------
2019-07-12 01:00:00 9.2 7.7 8.2--- 9025.0wxwxwxwxwx2wx--21012.4 989.5 -0.5---------
2019-07-12 00:00:00 9.9 8.2 8.7--- 8930.0wxwxwxwxwx2wx--21012.6 989.7 -0.2- 0.06------
2019-07-11 23:00:00 10.5 8.3 9.0--- 8630.0wxwxwxwxwx2wx--21012.7 989.9 0.1---------
2019-07-11 22:00:00 11.2 8.7 9.5--- 8525.0wxwxwxwx2wx--21012.8 990.0 0.4---------
2019-07-11 21:00:00 10.6 8.6 9.3--- 8725.0wx-wxwx1wx--11012.7 989.9 0.6---------
2019-07-11 20:00:00 12.4 9.1 10.3--- 8025.0wxwxwxwx1wx--11012.5 989.8 0.3---------
2019-07-11 19:00:00 14.9 8.5 11.0--- 6650.0wxwxwxwxwx1wx--11012.0 989.6 0.0---------
2019-07-11 18:00:00 18.1 8.3 12.4 20.4 12.6- 5350.0wxwxwxwxwx1wx--11011.5 989.3 -0.3- 0.012------
2019-07-11 17:00:00 19.4 6.7 12.3--- 4445.0wxwxwxwx3wx--31011.6 989.5 -0.2---------
2019-07-11 16:00:00 19.4 6.7 12.3--- 4440.0wxwxwxwx4wx--41011.7 989.6 -0.2---------
2019-07-11 15:00:00 19.4 6.4 12.2--- 4340.0wxwxwxwx4wx--41011.7 989.6 -0.3---------
2019-07-11 14:00:00 19.6 6.2 12.2--- 4235.0wxwxwxwx3wx--31011.8 989.7 -0.3---------
2019-07-11 13:00:00 19.3 5.6 11.8--- 4140.0wxwxwxwx4wx--41011.9 989.8 -0.3---------
2019-07-11 12:00:00 19.2 6.6 12.2--- 4435.0wxwxwxwx3wx-831012.0 989.9 -0.4- 0.06------
2019-07-11 11:00:00 16.7 7.2 11.3--- 5340.0wxwxwxwx4wx--41012.3 990.0 0.0---------
2019-07-11 10:00:00 16.5 8.9 12.0--- 6140.0wxwxwxwx3wx--31012.4 990.1 0.4---------
2019-07-11 09:00:00 14.9 9.2 11.4--- 6930.0wxwxwxwx4wx-841012.8 990.3 0.7---------
2019-07-11 08:00:00 13.7 10.6 11.6--- 8220.0wxwxwxwx4wx--41012.6 990.0 0.7---------
2019-07-11 07:00:00 13.5 10.4 11.5--- 8220.0wxwxwx4wx---1012.3 989.7 0.4---------
2019-07-11 06:00:00 12.7 11.2 11.6 14.6 10.3 10 9112.0wxwxwxwx3wx--31012.2 989.6 0.5 5.3 3.012wx-w1- 3.1
2019-07-11 05:00:00 11.4 10.7 10.9--- 9512.0wxwxwx3wx--31012.0 989.3 -0.1---wx---
2019-07-11 04:00:00 11.0 10.4 10.5--- 9615.0wxwxwx2wx--21012.1 989.3 -0.8---------
2019-07-11 03:00:00 10.4 9.7 9.9--- 9512.0wxwxwxwx3wx--31011.9 989.1 -1.0---wx-w1--
2019-07-11 02:00:00 11.0 10.3 10.5--- 9515.0wxwxwx3wx--31012.2 989.4 -0.8---wx---
2019-07-11 01:00:00 11.2 10.2 10.5--- 9425.0wxwxwx3wx--31012.9 990.1 -0.3---wx---
2019-07-11 00:00:00 11.2 9.8 10.2--- 9125.0wxwxwx1wx--11012.9 990.1 -0.3--6wx-w1--
2.1 ms

 

Print Friendly, PDF & Email